sensor_id;sensor_type;location;lat;lon;timestamp;pressure;altitude;pressure_sealevel;temperature;humidity
26711;BME280;18311;52.754;18.118;2023-03-01T00:00:48;101999.44;;;13.67;35.03
26711;BME280;18311;52.754;18.118;2023-03-01T00:03:20;101988.59;;;13.70;34.98
26711;BME280;18311;52.754;18.118;2023-03-01T00:05:52;102004.31;;;13.56;35.29
26711;BME280;18311;52.754;18.118;2023-03-01T00:08:23;101994.33;;;13.31;35.42
26711;BME280;18311;52.754;18.118;2023-03-01T00:11:14;101997.16;;;13.55;35.03
26711;BME280;18311;52.754;18.118;2023-03-01T00:13:39;102001.62;;;13.56;35.08
26711;BME280;18311;52.754;18.118;2023-03-01T00:16:18;101985.44;;;14.34;34.59
26711;BME280;18311;52.754;18.118;2023-03-01T00:18:43;101985.00;;;13.43;35.01
26711;BME280;18311;52.754;18.118;2023-03-01T00:21:14;101987.31;;;13.82;34.77
26711;BME280;18311;52.754;18.118;2023-03-01T00:23:45;101992.78;;;13.79;34.80
26711;BME280;18311;52.754;18.118;2023-03-01T00:26:19;101991.19;;;13.73;34.96
26711;BME280;18311;52.754;18.118;2023-03-01T00:28:50;101996.19;;;13.84;34.88
26711;BME280;18311;52.754;18.118;2023-03-01T00:31:22;101997.45;;;13.99;34.51
26711;BME280;18311;52.754;18.118;2023-03-01T00:33:54;102002.77;;;13.75;34.59
26711;BME280;18311;52.754;18.118;2023-03-01T00:36:38;102000.97;;;14.01;34.46
26711;BME280;18311;52.754;18.118;2023-03-01T00:39:07;102007.52;;;14.44;33.75
26711;BME280;18311;52.754;18.118;2023-03-01T00:41:37;101999.08;;;14.30;33.86
26711;BME280;18311;52.754;18.118;2023-03-01T00:44:09;101999.33;;;13.97;34.37
26711;BME280;18311;52.754;18.118;2023-03-01T00:46:40;101990.00;;;13.82;34.63
26711;BME280;18311;52.754;18.118;2023-03-01T00:49:10;101991.64;;;13.86;34.43
26711;BME280;18311;52.754;18.118;2023-03-01T00:51:41;101989.63;;;13.93;34.33
26711;BME280;18311;52.754;18.118;2023-03-01T00:54:12;101984.81;;;13.76;34.70
26711;BME280;18311;52.754;18.118;2023-03-01T00:56:43;101981.54;;;13.66;34.91
26711;BME280;18311;52.754;18.118;2023-03-01T00:59:13;101985.11;;;12.80;35.82
26711;BME280;18311;52.754;18.118;2023-03-01T01:01:44;101981.03;;;13.27;35.40
26711;BME280;18311;52.754;18.118;2023-03-01T01:04:15;101969.29;;;13.29;35.54
26711;BME280;18311;52.754;18.118;2023-03-01T01:06:46;101967.63;;;12.97;35.80
26711;BME280;18311;52.754;18.118;2023-03-01T01:09:17;101971.67;;;13.10;35.75
26711;BME280;18311;52.754;18.118;2023-03-01T01:11:50;101962.36;;;13.22;35.41
26711;BME280;18311;52.754;18.118;2023-03-01T01:14:21;101959.37;;;13.03;35.82
26711;BME280;18311;52.754;18.118;2023-03-01T01:16:51;101956.73;;;13.01;35.66
26711;BME280;18311;52.754;18.118;2023-03-01T01:19:22;101948.73;;;12.70;36.29
26711;BME280;18311;52.754;18.118;2023-03-01T01:21:53;101945.20;;;12.98;35.93
26711;BME280;18311;52.754;18.118;2023-03-01T01:24:24;101950.53;;;12.99;35.83
26711;BME280;18311;52.754;18.118;2023-03-01T01:26:55;101945.96;;;13.31;35.46
26711;BME280;18311;52.754;18.118;2023-03-01T01:29:26;101936.23;;;12.99;35.71
26711;BME280;18311;52.754;18.118;2023-03-01T01:31:56;101939.14;;;12.91;35.84
26711;BME280;18311;52.754;18.118;2023-03-01T01:34:27;101931.30;;;13.13;35.51
26711;BME280;18311;52.754;18.118;2023-03-01T01:36:59;101933.54;;;13.27;35.25
26711;BME280;18311;52.754;18.118;2023-03-01T01:39:31;101932.68;;;12.98;35.60
26711;BME280;18311;52.754;18.118;2023-03-01T01:42:03;101931.64;;;13.02;35.72
26711;BME280;18311;52.754;18.118;2023-03-01T01:44:34;101932.17;;;13.14;35.45
26711;BME280;18311;52.754;18.118;2023-03-01T01:47:07;101925.78;;;13.18;35.53
26711;BME280;18311;52.754;18.118;2023-03-01T01:49:42;101919.56;;;12.88;35.73
26711;BME280;18311;52.754;18.118;2023-03-01T01:54:57;101903.66;;;13.10;35.44
26711;BME280;18311;52.754;18.118;2023-03-01T01:57:35;101903.23;;;13.50;34.86
26711;BME280;18311;52.754;18.118;2023-03-01T02:00:09;101902.23;;;13.79;34.50
26711;BME280;18311;52.754;18.118;2023-03-01T02:02:41;101892.78;;;13.68;34.37
26711;BME280;18311;52.754;18.118;2023-03-01T02:08:00;101898.64;;;12.99;35.48
26711;BME280;18311;52.754;18.118;2023-03-01T02:10:33;101895.75;;;13.60;34.64
26711;BME280;18311;52.754;18.118;2023-03-01T02:13:05;101882.13;;;13.11;35.20
26711;BME280;18311;52.754;18.118;2023-03-01T02:15:37;101887.20;;;12.92;35.57
26711;BME280;18311;52.754;18.118;2023-03-01T02:18:12;101893.75;;;12.83;35.77
26711;BME280;18311;52.754;18.118;2023-03-01T02:23:19;101891.32;;;12.76;35.67
26711;BME280;18311;52.754;18.118;2023-03-01T02:26:07;101894.53;;;12.87;35.84
26711;BME280;18311;52.754;18.118;2023-03-01T02:28:40;101891.11;;;12.82;35.67
26711;BME280;18311;52.754;18.118;2023-03-01T02:31:14;101889.97;;;12.61;36.10
26711;BME280;18311;52.754;18.118;2023-03-01T02:34:04;101885.84;;;13.35;35.45
26711;BME280;18311;52.754;18.118;2023-03-01T02:36:52;101887.47;;;12.84;35.46
26711;BME280;18311;52.754;18.118;2023-03-01T02:39:25;101878.80;;;13.03;35.20
26711;BME280;18311;52.754;18.118;2023-03-01T02:42:00;101878.45;;;13.42;35.18
26711;BME280;18311;52.754;18.118;2023-03-01T02:44:39;101875.45;;;13.51;34.67
26711;BME280;18311;52.754;18.118;2023-03-01T02:47:10;101874.29;;;13.84;34.38
26711;BME280;18311;52.754;18.118;2023-03-01T02:49:45;101887.34;;;13.44;34.58
26711;BME280;18311;52.754;18.118;2023-03-01T02:55:14;101892.13;;;13.34;34.76
26711;BME280;18311;52.754;18.118;2023-03-01T02:57:52;101889.07;;;12.90;35.21
26711;BME280;18311;52.754;18.118;2023-03-01T03:00:28;101896.87;;;12.98;35.15
26711;BME280;18311;52.754;18.118;2023-03-01T03:03:04;101893.22;;;13.00;35.29
26711;BME280;18311;52.754;18.118;2023-03-01T03:05:37;101891.55;;;12.96;35.31
26711;BME280;18311;52.754;18.118;2023-03-01T03:08:11;101893.65;;;13.15;35.16
26711;BME280;18311;52.754;18.118;2023-03-01T03:10:46;101903.70;;;13.08;35.20
26711;BME280;18311;52.754;18.118;2023-03-01T03:13:19;101895.81;;;13.32;34.93
26711;BME280;18311;52.754;18.118;2023-03-01T03:15:52;101895.77;;;13.33;34.91
26711;BME280;18311;52.754;18.118;2023-03-01T03:18:25;101892.95;;;13.36;34.92
26711;BME280;18311;52.754;18.118;2023-03-01T03:20:59;101887.48;;;13.39;34.80
26711;BME280;18311;52.754;18.118;2023-03-01T03:23:37;101885.09;;;13.57;34.68
26711;BME280;18311;52.754;18.118;2023-03-01T03:26:09;101874.53;;;13.24;34.83
26711;BME280;18311;52.754;18.118;2023-03-01T03:28:45;101873.56;;;13.27;35.04
26711;BME280;18311;52.754;18.118;2023-03-01T03:31:21;101876.51;;;12.62;35.85
26711;BME280;18311;52.754;18.118;2023-03-01T03:33:53;101863.62;;;12.74;35.57
26711;BME280;18311;52.754;18.118;2023-03-01T03:36:26;101866.85;;;12.57;35.78
26711;BME280;18311;52.754;18.118;2023-03-01T03:38:59;101879.71;;;13.30;35.04
26711;BME280;18311;52.754;18.118;2023-03-01T03:41:36;101879.72;;;13.57;34.59
26711;BME280;18311;52.754;18.118;2023-03-01T03:44:08;101875.49;;;13.50;34.59
26711;BME280;18311;52.754;18.118;2023-03-01T03:46:44;101870.30;;;13.17;35.13
26711;BME280;18311;52.754;18.118;2023-03-01T03:49:19;101871.59;;;13.33;34.80
26711;BME280;18311;52.754;18.118;2023-03-01T03:51:53;101871.16;;;13.17;35.03
26711;BME280;18311;52.754;18.118;2023-03-01T03:54:26;101860.32;;;12.65;35.74
26711;BME280;18311;52.754;18.118;2023-03-01T03:56:59;101853.77;;;12.46;35.79
26711;BME280;18311;52.754;18.118;2023-03-01T03:59:34;101853.48;;;12.55;35.79
26711;BME280;18311;52.754;18.118;2023-03-01T04:02:09;101847.33;;;12.52;35.84
26711;BME280;18311;52.754;18.118;2023-03-01T04:04:42;101853.28;;;12.32;36.20
26711;BME280;18311;52.754;18.118;2023-03-01T04:07:14;101850.14;;;12.47;35.61
26711;BME280;18311;52.754;18.118;2023-03-01T04:09:57;101846.38;;;12.53;35.38
26711;BME280;18311;52.754;18.118;2023-03-01T04:12:29;101837.05;;;13.21;34.90
26711;BME280;18311;52.754;18.118;2023-03-01T04:15:06;101840.59;;;12.66;35.27
26711;BME280;18311;52.754;18.118;2023-03-01T04:17:47;101828.82;;;12.99;35.03
26711;BME280;18311;52.754;18.118;2023-03-01T04:20:28;101826.99;;;13.26;34.79
26711;BME280;18311;52.754;18.118;2023-03-01T04:23:10;101820.77;;;12.99;34.94
26711;BME280;18311;52.754;18.118;2023-03-01T04:25:49;101831.41;;;13.02;34.86
26711;BME280;18311;52.754;18.118;2023-03-01T04:28:27;101835.02;;;13.01;35.04
26711;BME280;18311;52.754;18.118;2023-03-01T04:31:03;101839.25;;;13.08;35.01
26711;BME280;18311;52.754;18.118;2023-03-01T04:33:41;101835.12;;;12.70;35.38
26711;BME280;18311;52.754;18.118;2023-03-01T04:36:15;101836.28;;;12.33;35.78
26711;BME280;18311;52.754;18.118;2023-03-01T04:38:50;101837.92;;;12.07;36.40
26711;BME280;18311;52.754;18.118;2023-03-01T04:41:27;101833.42;;;12.95;35.19
26711;BME280;18311;52.754;18.118;2023-03-01T04:43:59;101842.00;;;12.50;35.94
26711;BME280;18311;52.754;18.118;2023-03-01T04:46:35;101833.13;;;12.76;35.36
26711;BME280;18311;52.754;18.118;2023-03-01T04:49:10;101831.23;;;12.80;35.35
26711;BME280;18311;52.754;18.118;2023-03-01T04:51:44;101831.09;;;12.84;35.20
26711;BME280;18311;52.754;18.118;2023-03-01T04:54:17;101829.03;;;12.64;35.34
26711;BME280;18311;52.754;18.118;2023-03-01T04:56:53;101836.45;;;12.84;35.37
26711;BME280;18311;52.754;18.118;2023-03-01T04:59:25;101841.09;;;12.51;35.54
26711;BME280;18311;52.754;18.118;2023-03-01T05:02:01;101836.25;;;12.62;35.32
26711;BME280;18311;52.754;18.118;2023-03-01T05:04:35;101832.40;;;12.71;35.27
26711;BME280;18311;52.754;18.118;2023-03-01T05:07:08;101838.89;;;12.64;35.62
26711;BME280;18311;52.754;18.118;2023-03-01T05:09:42;101833.15;;;13.03;35.05
26711;BME280;18311;52.754;18.118;2023-03-01T05:12:16;101828.55;;;13.07;34.99
26711;BME280;18311;52.754;18.118;2023-03-01T05:14:48;101830.31;;;12.81;35.29
26711;BME280;18311;52.754;18.118;2023-03-01T05:17:23;101826.34;;;12.64;35.33
26711;BME280;18311;52.754;18.118;2023-03-01T05:19:56;101824.73;;;12.87;35.17
26711;BME280;18311;52.754;18.118;2023-03-01T05:22:33;101829.31;;;12.83;35.30
26711;BME280;18311;52.754;18.118;2023-03-01T05:25:08;101820.58;;;12.77;35.09
26711;BME280;18311;52.754;18.118;2023-03-01T05:27:39;101828.05;;;12.95;35.32
26711;BME280;18311;52.754;18.118;2023-03-01T05:30:13;101821.97;;;12.62;35.65
26711;BME280;18311;52.754;18.118;2023-03-01T05:32:49;101818.98;;;12.43;36.06
26711;BME280;18311;52.754;18.118;2023-03-01T05:35:23;101822.14;;;12.56;35.84
26711;BME280;18311;52.754;18.118;2023-03-01T05:37:55;101822.67;;;12.95;35.77
26711;BME280;18311;52.754;18.118;2023-03-01T05:40:28;101820.72;;;12.44;35.97
26711;BME280;18311;52.754;18.118;2023-03-01T05:43:01;101830.07;;;12.01;36.52
26711;BME280;18311;52.754;18.118;2023-03-01T05:45:36;101825.17;;;12.45;36.01
26711;BME280;18311;52.754;18.118;2023-03-01T05:48:14;101833.52;;;12.92;35.46
26711;BME280;18311;52.754;18.118;2023-03-01T05:50:51;101840.84;;;12.59;35.51
26711;BME280;18311;52.754;18.118;2023-03-01T05:53:24;101837.92;;;12.95;35.38
26711;BME280;18311;52.754;18.118;2023-03-01T05:55:59;101833.82;;;12.83;35.60
26711;BME280;18311;52.754;18.118;2023-03-01T05:58:32;101830.64;;;12.98;35.57
26711;BME280;18311;52.754;18.118;2023-03-01T06:01:23;101834.78;;;12.52;35.74
26711;BME280;18311;52.754;18.118;2023-03-01T06:03:59;101826.33;;;12.36;36.24
26711;BME280;18311;52.754;18.118;2023-03-01T06:06:36;101823.03;;;12.26;36.13
26711;BME280;18311;52.754;18.118;2023-03-01T06:09:11;101831.02;;;12.58;36.25
26711;BME280;18311;52.754;18.118;2023-03-01T06:11:44;101831.23;;;13.07;35.43
26711;BME280;18311;52.754;18.118;2023-03-01T06:14:17;101830.06;;;12.60;35.97
26711;BME280;18311;52.754;18.118;2023-03-01T06:16:51;101836.87;;;12.99;35.54
26711;BME280;18311;52.754;18.118;2023-03-01T06:19:26;101833.09;;;12.50;36.05
26711;BME280;18311;52.754;18.118;2023-03-01T06:22:01;101838.55;;;12.17;36.79
26711;BME280;18311;52.754;18.118;2023-03-01T06:24:39;101837.34;;;12.27;36.63
26711;BME280;18311;52.754;18.118;2023-03-01T06:27:12;101839.23;;;12.53;36.22
26711;BME280;18311;52.754;18.118;2023-03-01T06:29:46;101838.76;;;12.69;36.12
26711;BME280;18311;52.754;18.118;2023-03-01T06:32:19;101831.91;;;12.87;35.92
26711;BME280;18311;52.754;18.118;2023-03-01T06:34:52;101834.09;;;13.02;35.71
26711;BME280;18311;52.754;18.118;2023-03-01T06:37:26;101840.56;;;12.08;36.77
26711;BME280;18311;52.754;18.118;2023-03-01T06:39:59;101841.39;;;12.40;36.78
26711;BME280;18311;52.754;18.118;2023-03-01T06:42:38;101851.55;;;12.31;37.00
26711;BME280;18311;52.754;18.118;2023-03-01T06:45:12;101844.03;;;12.42;36.84
26711;BME280;18311;52.754;18.118;2023-03-01T06:47:48;101851.70;;;12.54;36.72
26711;BME280;18311;52.754;18.118;2023-03-01T06:50:21;101846.86;;;12.67;36.49
26711;BME280;18311;52.754;18.118;2023-03-01T06:52:59;101840.88;;;12.57;36.43
26711;BME280;18311;52.754;18.118;2023-03-01T06:55:32;101843.12;;;12.99;36.22
26711;BME280;18311;52.754;18.118;2023-03-01T06:58:15;101841.88;;;13.10;36.02
26711;BME280;18311;52.754;18.118;2023-03-01T07:00:49;101844.98;;;13.24;35.89
26711;BME280;18311;52.754;18.118;2023-03-01T07:03:21;101838.69;;;13.52;35.81
26711;BME280;18311;52.754;18.118;2023-03-01T07:05:55;101840.11;;;13.09;35.90
26711;BME280;18311;52.754;18.118;2023-03-01T07:08:27;101845.20;;;13.18;36.09
26711;BME280;18311;52.754;18.118;2023-03-01T07:11:03;101844.59;;;13.36;35.77
26711;BME280;18311;52.754;18.118;2023-03-01T07:13:40;101841.91;;;13.36;35.65
26711;BME280;18311;52.754;18.118;2023-03-01T07:16:12;101859.09;;;13.57;35.51
26711;BME280;18311;52.754;18.118;2023-03-01T07:18:47;101855.28;;;13.65;35.40
26711;BME280;18311;52.754;18.118;2023-03-01T07:21:23;101843.58;;;13.66;35.34
26711;BME280;18311;52.754;18.118;2023-03-01T07:23:56;101847.48;;;13.82;35.53
26711;BME280;18311;52.754;18.118;2023-03-01T07:26:32;101835.90;;;13.55;35.79
26711;BME280;18311;52.754;18.118;2023-03-01T07:29:10;101834.35;;;13.73;35.40
26711;BME280;18311;52.754;18.118;2023-03-01T07:31:43;101839.16;;;13.65;35.90
26711;BME280;18311;52.754;18.118;2023-03-01T07:34:18;101846.81;;;14.24;35.53
26711;BME280;18311;52.754;18.118;2023-03-01T07:36:51;101836.44;;;13.90;35.56
26711;BME280;18311;52.754;18.118;2023-03-01T07:39:29;101836.59;;;13.85;35.83
26711;BME280;18311;52.754;18.118;2023-03-01T07:42:11;101827.59;;;13.61;36.27
26711;BME280;18311;52.754;18.118;2023-03-01T07:44:44;101821.09;;;13.68;35.81
26711;BME280;18311;52.754;18.118;2023-03-01T07:47:18;101818.62;;;13.37;36.62
26711;BME280;18311;52.754;18.118;2023-03-01T07:49:52;101820.86;;;13.74;36.06
26711;BME280;18311;52.754;18.118;2023-03-01T07:52:25;101830.80;;;13.72;36.29
26711;BME280;18311;52.754;18.118;2023-03-01T07:55:00;101825.67;;;14.13;35.74
26711;BME280;18311;52.754;18.118;2023-03-01T07:57:36;101827.84;;;14.27;35.69
26711;BME280;18311;52.754;18.118;2023-03-01T08:00:10;101831.23;;;13.60;36.44
26711;BME280;18311;52.754;18.118;2023-03-01T08:02:43;101826.34;;;13.71;36.60
26711;BME280;18311;52.754;18.118;2023-03-01T08:05:16;101810.30;;;13.93;36.50
26711;BME280;18311;52.754;18.118;2023-03-01T08:07:49;101816.84;;;13.86;36.21
26711;BME280;18311;52.754;18.118;2023-03-01T08:10:25;101807.51;;;13.96;36.24
26711;BME280;18311;52.754;18.118;2023-03-01T08:12:58;101809.05;;;13.78;36.46
26711;BME280;18311;52.754;18.118;2023-03-01T08:15:34;101799.19;;;13.54;36.95
26711;BME280;18311;52.754;18.118;2023-03-01T08:18:06;101788.04;;;14.81;36.11
26711;BME280;18311;52.754;18.118;2023-03-01T08:20:42;101803.81;;;13.99;36.15
26711;BME280;18311;52.754;18.118;2023-03-01T08:23:16;101797.67;;;13.72;36.83
26711;BME280;18311;52.754;18.118;2023-03-01T08:25:51;101801.94;;;13.77;36.65
26711;BME280;18311;52.754;18.118;2023-03-01T08:28:34;101798.94;;;13.62;37.04
26711;BME280;18311;52.754;18.118;2023-03-01T08:31:21;101799.41;;;13.73;36.83
26711;BME280;18311;52.754;18.118;2023-03-01T08:34:00;101797.93;;;13.64;36.94
26711;BME280;18311;52.754;18.118;2023-03-01T08:36:39;101806.14;;;13.85;36.71
26711;BME280;18311;52.754;18.118;2023-03-01T08:39:12;101802.44;;;13.64;37.40
26711;BME280;18311;52.754;18.118;2023-03-01T08:41:48;101800.55;;;14.14;36.85
26711;BME280;18311;52.754;18.118;2023-03-01T08:44:21;101800.43;;;14.18;36.34
26711;BME280;18311;52.754;18.118;2023-03-01T08:46:56;101799.64;;;14.38;36.53
26711;BME280;18311;52.754;18.118;2023-03-01T08:49:30;101788.43;;;15.15;35.73
26711;BME280;18311;52.754;18.118;2023-03-01T08:52:03;101793.08;;;15.11;35.80
26711;BME280;18311;52.754;18.118;2023-03-01T08:54:33;101795.67;;;14.92;36.14
26711;BME280;18311;52.754;18.118;2023-03-01T08:57:04;101790.44;;;14.89;36.31
26711;BME280;18311;52.754;18.118;2023-03-01T08:59:34;101796.58;;;15.13;36.19
26711;BME280;18311;52.754;18.118;2023-03-01T09:02:16;101801.46;;;14.13;37.35
26711;BME280;18311;52.754;18.118;2023-03-01T09:04:48;101803.00;;;14.88;36.72
26711;BME280;18311;52.754;18.118;2023-03-01T09:07:18;101800.01;;;14.74;36.52
26711;BME280;18311;52.754;18.118;2023-03-01T09:09:49;101795.24;;;14.59;37.21
26711;BME280;18311;52.754;18.118;2023-03-01T09:12:21;101798.52;;;14.89;36.96
26711;BME280;18311;52.754;18.118;2023-03-01T09:14:54;101791.92;;;14.96;37.24
26711;BME280;18311;52.754;18.118;2023-03-01T09:17:24;101791.47;;;15.48;36.70
26711;BME280;18311;52.754;18.118;2023-03-01T09:19:55;101777.42;;;16.20;35.93
26711;BME280;18311;52.754;18.118;2023-03-01T09:22:26;101775.95;;;15.94;36.18
26711;BME280;18311;52.754;18.118;2023-03-01T09:24:56;101783.55;;;16.24;36.08
26711;BME280;18311;52.754;18.118;2023-03-01T09:30:31;101760.42;;;21.44;56.73
26711;BME280;18311;52.754;18.118;2023-03-01T09:33:02;101765.47;;;29.48;32.86
26711;BME280;18311;52.754;18.118;2023-03-01T09:35:32;101770.91;;;31.84;29.95
26711;BME280;18311;52.754;18.118;2023-03-01T09:38:04;101778.55;;;32.22;28.46
26711;BME280;18311;52.754;18.118;2023-03-01T09:40:35;101767.98;;;32.65;28.26
26711;BME280;18311;52.754;18.118;2023-03-01T09:43:19;101781.02;;;33.02;27.51
26711;BME280;18311;52.754;18.118;2023-03-01T09:45:46;101775.82;;;33.45;27.07
26711;BME280;18311;52.754;18.118;2023-03-01T09:48:21;101786.79;;;33.77;26.78
26711;BME280;18311;52.754;18.118;2023-03-01T09:50:53;101780.28;;;34.29;25.99
26711;BME280;18311;52.754;18.118;2023-03-01T09:53:27;101778.73;;;34.27;25.76
26711;BME280;18311;52.754;18.118;2023-03-01T09:56:02;101778.73;;;34.27;25.64
26711;BME280;18311;52.754;18.118;2023-03-01T10:01:35;101780.98;;;34.53;24.96
26711;BME280;18311;52.754;18.118;2023-03-01T10:04:22;101779.02;;;34.68;24.83
26711;BME280;18311;52.754;18.118;2023-03-01T10:06:58;101779.02;;;34.68;24.71
26711;BME280;18311;52.754;18.118;2023-03-01T10:09:30;101769.41;;;34.86;24.41
26711;BME280;18311;52.754;18.118;2023-03-01T10:12:04;101774.64;;;34.95;24.23
26711;BME280;18311;52.754;18.118;2023-03-01T10:14:38;101773.52;;;34.90;24.23
26711;BME280;18311;52.754;18.118;2023-03-01T10:19:51;101761.15;;;34.71;24.23
26711;BME280;18311;52.754;18.118;2023-03-01T10:22:29;101752.63;;;34.57;24.08
26711;BME280;18311;52.754;18.118;2023-03-01T10:24:57;101749.19;;;34.19;24.37
26711;BME280;18311;52.754;18.118;2023-03-01T10:27:45;101745.84;;;34.60;24.24
26711;BME280;18311;52.754;18.118;2023-03-01T10:30:34;101739.28;;;34.68;24.20
26711;BME280;18311;52.754;18.118;2023-03-01T10:33:12;101736.97;;;34.50;24.26
26711;BME280;18311;52.754;18.118;2023-03-01T10:35:38;101733.64;;;34.39;24.37
26711;BME280;18311;52.754;18.118;2023-03-01T10:38:12;101741.61;;;34.28;24.39
26711;BME280;18311;52.754;18.118;2023-03-01T10:41:06;101735.97;;;34.57;24.22
26711;BME280;18311;52.754;18.118;2023-03-01T10:49:22;101738.77;;;34.79;24.04
26711;BME280;18311;52.754;18.118;2023-03-01T10:51:51;101729.00;;;34.83;23.88
26711;BME280;18311;52.754;18.118;2023-03-01T10:54:31;101735.89;;;34.51;24.03
26711;BME280;18311;52.754;18.118;2023-03-01T10:57:04;101733.59;;;34.03;24.49
26711;BME280;18311;52.754;18.118;2023-03-01T10:59:38;101732.65;;;33.96;24.49
26711;BME280;18311;52.754;18.118;2023-03-01T11:02:20;101730.91;;;33.95;24.55
26711;BME280;18311;52.754;18.118;2023-03-01T11:04:59;101715.44;;;33.85;24.53
26711;BME280;18311;52.754;18.118;2023-03-01T11:07:30;101713.80;;;33.91;24.50
26711;BME280;18311;52.754;18.118;2023-03-01T11:10:11;101704.11;;;34.02;24.49
26711;BME280;18311;52.754;18.118;2023-03-01T11:12:37;101703.27;;;34.01;24.43
26711;BME280;18311;52.754;18.118;2023-03-01T11:15:19;101702.22;;;34.02;24.36
26711;BME280;18311;52.754;18.118;2023-03-01T11:17:43;101698.84;;;34.07;24.35
26711;BME280;18311;52.754;18.118;2023-03-01T11:20:25;101691.08;;;34.32;24.17
26711;BME280;18311;52.754;18.118;2023-03-01T11:22:55;101690.27;;;34.38;24.00
26711;BME280;18311;52.754;18.118;2023-03-01T11:25:37;101689.08;;;34.48;24.01
26711;BME280;18311;52.754;18.118;2023-03-01T11:28:18;101686.53;;;34.46;24.06
26711;BME280;18311;52.754;18.118;2023-03-01T11:31:05;101677.58;;;34.29;24.19
26711;BME280;18311;52.754;18.118;2023-03-01T11:33:56;101678.63;;;34.28;24.16
26711;BME280;18311;52.754;18.118;2023-03-01T11:36:58;101671.95;;;34.44;24.00
26711;BME280;18311;52.754;18.118;2023-03-01T11:39:43;101670.98;;;34.52;23.96
26711;BME280;18311;52.754;18.118;2023-03-01T11:42:39;101671.19;;;34.72;23.75
26711;BME280;18311;52.754;18.118;2023-03-01T11:45:10;101674.88;;;34.57;24.01
26711;BME280;18311;52.754;18.118;2023-03-01T11:47:56;101666.61;;;34.64;23.90
26711;BME280;18311;52.754;18.118;2023-03-01T11:50:28;101663.11;;;34.55;23.86
26711;BME280;18311;52.754;18.118;2023-03-01T11:53:35;101665.17;;;34.90;23.61
26711;BME280;18311;52.754;18.118;2023-03-01T12:01:47;101650.60;;;34.66;23.80
26711;BME280;18311;52.754;18.118;2023-03-01T12:09:47;101648.12;;;34.71;23.68
26711;BME280;18311;52.754;18.118;2023-03-01T12:18:27;101635.09;;;35.00;23.55
26711;BME280;18311;52.754;18.118;2023-03-01T12:21:14;101641.23;;;34.67;23.69
26711;BME280;18311;52.754;18.118;2023-03-01T12:26:50;101634.35;;;34.85;23.75
26711;BME280;18311;52.754;18.118;2023-03-01T12:29:30;101632.17;;;34.80;23.65
26711;BME280;18311;52.754;18.118;2023-03-01T12:32:27;101629.05;;;34.90;23.75
26711;BME280;18311;52.754;18.118;2023-03-01T12:35:23;101615.75;;;34.85;23.90
26711;BME280;18311;52.754;18.118;2023-03-01T12:40:53;101633.08;;;34.87;23.84
26711;BME280;18311;52.754;18.118;2023-03-01T12:46:21;101622.27;;;34.99;23.78
26711;BME280;18311;52.754;18.118;2023-03-01T12:51:28;101631.71;;;34.76;24.01
26711;BME280;18311;52.754;18.118;2023-03-01T12:54:01;101627.52;;;34.87;23.77
26711;BME280;18311;52.754;18.118;2023-03-01T12:56:35;101632.23;;;34.87;23.86
26711;BME280;18311;52.754;18.118;2023-03-01T13:04:45;101637.45;;;35.25;23.81
26711;BME280;18311;52.754;18.118;2023-03-01T13:07:36;101623.02;;;35.14;23.78
26711;BME280;18311;52.754;18.118;2023-03-01T13:10:33;101632.30;;;34.72;24.04
26711;BME280;18311;52.754;18.118;2023-03-01T13:13:19;101632.17;;;34.80;24.24
26711;BME280;18311;52.754;18.118;2023-03-01T13:15:36;101626.75;;;35.00;23.92
26711;BME280;18311;52.754;18.118;2023-03-01T13:20:55;101610.38;;;34.34;23.83
26711;BME280;18311;52.754;18.118;2023-03-01T13:23:29;101616.78;;;33.98;23.42
26711;BME280;18311;52.754;18.118;2023-03-01T13:26:18;101602.44;;;34.31;23.24
26711;BME280;18311;52.754;18.118;2023-03-01T13:28:51;101612.80;;;34.43;23.96
26711;BME280;18311;52.754;18.118;2023-03-01T13:34:02;101607.84;;;34.60;24.08
26711;BME280;18311;52.754;18.118;2023-03-01T13:39:30;101596.27;;;34.57;24.28
26711;BME280;18311;52.754;18.118;2023-03-01T13:42:28;101593.08;;;34.82;24.73
26711;BME280;18311;52.754;18.118;2023-03-01T13:44:38;101593.37;;;35.22;24.16
26711;BME280;18311;52.754;18.118;2023-03-01T13:47:16;101592.97;;;35.25;23.80
26711;BME280;18311;52.754;18.118;2023-03-01T13:49:52;101592.25;;;35.16;24.92
